createdAt,value
2022-10-04T00:02:27.656Z,99.90
2022-10-04T00:05:03.087Z,99.90
2022-10-04T00:07:34.280Z,99.90
2022-10-04T00:10:08.139Z,99.90
2022-10-04T00:12:42.201Z,99.90
2022-10-04T00:15:21.465Z,99.90
2022-10-04T00:18:06.738Z,99.90
2022-10-04T00:21:04.022Z,99.90
2022-10-04T00:23:44.672Z,99.90
2022-10-04T00:26:42.598Z,99.90
2022-10-04T00:29:32.676Z,99.90
2022-10-04T00:32:47.616Z,99.90
2022-10-04T00:35:47.330Z,99.90
2022-10-04T00:38:16.698Z,99.90
2022-10-04T00:40:51.015Z,99.90
2022-10-04T00:43:23.848Z,99.90
2022-10-04T00:45:55.877Z,99.90
2022-10-04T00:48:34.625Z,99.90
2022-10-04T00:51:18.100Z,99.90
2022-10-04T00:53:59.080Z,99.90
2022-10-04T00:56:33.742Z,99.90
2022-10-04T00:59:17.209Z,99.90
2022-10-04T01:01:50.450Z,99.90
2022-10-04T01:04:28.751Z,99.90
2022-10-04T01:06:59.993Z,99.90
2022-10-04T01:09:29.003Z,99.90
2022-10-04T01:12:03.168Z,99.90
2022-10-04T01:14:40.771Z,99.90
2022-10-04T01:17:10.901Z,99.90
2022-10-04T01:19:49.968Z,99.90
2022-10-04T01:22:37.296Z,99.90
2022-10-04T01:25:05.864Z,99.90
2022-10-04T01:27:37.530Z,99.90
2022-10-04T01:30:09.379Z,99.90
2022-10-04T01:32:39.036Z,99.90
2022-10-04T01:35:09.290Z,99.90
2022-10-04T01:37:39.326Z,99.90
2022-10-04T01:40:09.529Z,99.90
2022-10-04T01:42:43.077Z,99.90
2022-10-04T01:45:17.912Z,99.90
2022-10-04T01:47:51.436Z,99.90
2022-10-04T01:50:25.063Z,99.90
2022-10-04T01:53:01.212Z,99.90
2022-10-04T01:55:31.565Z,99.90
2022-10-04T01:58:04.049Z,99.90
2022-10-04T02:00:32.838Z,99.90
2022-10-04T02:03:04.708Z,99.90
2022-10-04T02:05:36.717Z,99.90
2022-10-04T02:08:09.805Z,99.90
2022-10-04T02:10:43.616Z,99.90
2022-10-04T02:13:14.531Z,99.90
2022-10-04T02:15:43.100Z,99.90
2022-10-04T02:18:14.179Z,99.90
2022-10-04T02:20:43.553Z,99.90
2022-10-04T02:23:13.990Z,99.90
2022-10-04T02:25:41.704Z,99.90
2022-10-04T02:28:13.123Z,99.90
2022-10-04T02:30:44.548Z,99.90
2022-10-04T02:33:11.828Z,99.90
2022-10-04T02:35:47.327Z,99.90
2022-10-04T02:38:22.202Z,99.90
2022-10-04T02:40:57.087Z,99.90
2022-10-04T02:43:28.704Z,99.90
2022-10-04T02:46:02.510Z,99.90
2022-10-04T02:48:37.576Z,99.90
2022-10-04T02:51:18.937Z,99.90
2022-10-04T02:54:00.976Z,99.90
2022-10-04T02:56:31.971Z,99.90
2022-10-04T02:59:03.140Z,99.90
2022-10-04T03:01:43.655Z,99.90
2022-10-04T03:04:15.005Z,99.90
2022-10-04T03:06:44.936Z,99.90
2022-10-04T03:09:16.076Z,99.90
2022-10-04T03:11:44.750Z,99.90
2022-10-04T03:14:17.836Z,99.90
2022-10-04T03:16:48.641Z,99.90
2022-10-04T03:19:18.619Z,99.90
2022-10-04T03:21:50.102Z,99.90
2022-10-04T03:24:21.557Z,99.90
2022-10-04T03:26:52.939Z,99.90
2022-10-04T03:29:23.929Z,99.90
2022-10-04T03:31:54.121Z,99.90
2022-10-04T03:34:24.507Z,99.90
2022-10-04T03:36:56.137Z,99.90
2022-10-04T03:39:30.046Z,99.90
2022-10-04T03:41:58.849Z,99.90
2022-10-04T03:44:26.815Z,99.90
2022-10-04T03:46:54.854Z,99.90
2022-10-04T03:49:32.401Z,99.90
2022-10-04T03:52:02.026Z,99.90
2022-10-04T03:54:33.143Z,99.90
2022-10-04T03:57:02.472Z,99.90
2022-10-04T03:59:30.741Z,99.90
2022-10-04T04:02:07.409Z,99.90
2022-10-04T04:04:43.476Z,99.90
2022-10-04T04:07:16.100Z,99.90
2022-10-04T04:09:50.805Z,99.90
2022-10-04T04:12:21.689Z,99.90
2022-10-04T04:14:51.892Z,99.90
2022-10-04T04:17:38.964Z,99.90
2022-10-04T04:20:16.478Z,99.90
2022-10-04T04:22:48.807Z,99.90
2022-10-04T04:25:18.504Z,99.90
2022-10-04T04:27:49.272Z,99.90
2022-10-04T04:30:19.032Z,99.90
2022-10-04T04:32:50.959Z,99.90
2022-10-04T04:35:23.955Z,99.90
2022-10-04T04:38:07.081Z,99.90
2022-10-04T04:40:37.697Z,99.90
2022-10-04T04:43:05.605Z,99.90
2022-10-04T04:45:35.703Z,99.90
2022-10-04T04:48:04.672Z,99.90
2022-10-04T04:50:35.595Z,99.90
2022-10-04T04:53:07.825Z,99.90
2022-10-04T04:56:02.275Z,99.90
2022-10-04T04:58:33.091Z,99.90
2022-10-04T05:01:03.353Z,99.90
2022-10-04T05:03:33.072Z,99.90
2022-10-04T05:06:02.855Z,99.90
2022-10-04T05:08:33.365Z,99.90
2022-10-04T05:11:07.880Z,99.90
2022-10-04T05:13:41.679Z,99.90
2022-10-04T05:16:14.008Z,99.90
2022-10-04T05:18:41.973Z,99.90
2022-10-04T05:21:15.452Z,99.90
2022-10-04T05:23:43.660Z,99.90
2022-10-04T05:26:14.641Z,99.90
2022-10-04T05:28:42.886Z,99.90
2022-10-04T05:31:28.304Z,99.90
2022-10-04T05:33:58.917Z,99.90
2022-10-04T05:37:06.906Z,99.90
2022-10-04T05:39:41.568Z,99.90
2022-10-04T05:42:21.055Z,99.90
2022-10-04T05:44:52.941Z,99.90
2022-10-04T05:47:23.870Z,99.90
2022-10-04T05:49:55.415Z,99.90
2022-10-04T05:52:30.266Z,99.90
2022-10-04T05:55:22.046Z,99.90
2022-10-04T05:58:22.628Z,99.90
2022-10-04T06:01:10.368Z,99.90
2022-10-04T06:04:08.167Z,99.90
2022-10-04T06:06:40.429Z,99.90
2022-10-04T06:09:15.106Z,99.90
2022-10-04T06:11:52.379Z,99.90
2022-10-04T06:14:46.086Z,99.90
2022-10-04T06:17:31.258Z,99.90
2022-10-04T06:20:31.167Z,99.90
2022-10-04T06:23:01.725Z,99.90
2022-10-04T06:25:32.641Z,99.90
2022-10-04T06:28:14.483Z,99.90
2022-10-04T06:31:21.360Z,99.90
2022-10-04T06:34:18.963Z,99.90
2022-10-04T06:37:05.549Z,99.90
2022-10-04T06:39:57.233Z,99.90
2022-10-04T06:42:48.642Z,99.90
2022-10-04T06:45:44.390Z,99.90
2022-10-04T06:48:42.072Z,99.90
2022-10-04T06:51:17.258Z,99.90
2022-10-04T06:53:55.538Z,99.90
2022-10-04T06:56:45.690Z,99.90
2022-10-04T06:59:27.693Z,99.90
2022-10-04T07:01:59.289Z,99.90
2022-10-04T07:05:03.147Z,99.90
2022-10-04T07:07:36.212Z,99.90
2022-10-04T07:10:19.112Z,99.90
2022-10-04T07:12:54.709Z,99.90
2022-10-04T07:15:27.298Z,99.90
2022-10-04T07:17:58.506Z,99.90
2022-10-04T07:20:32.165Z,99.90
2022-10-04T07:23:03.881Z,99.90
2022-10-04T07:25:37.355Z,99.90
2022-10-04T07:28:31.262Z,99.90
2022-10-04T07:31:03.518Z,99.90
2022-10-04T07:33:34.828Z,99.90
2022-10-04T07:36:09.688Z,99.90
2022-10-04T07:38:45.341Z,99.90
2022-10-04T07:41:21.364Z,99.90
2022-10-04T07:43:54.347Z,99.90
2022-10-04T07:46:29.398Z,99.90
2022-10-04T07:48:58.072Z,99.90
2022-10-04T07:51:37.410Z,99.90
2022-10-04T07:54:13.749Z,99.90
2022-10-04T07:56:48.227Z,99.90
2022-10-04T07:59:32.865Z,99.90
2022-10-04T08:02:12.913Z,99.90
2022-10-04T08:04:51.364Z,99.90
2022-10-04T08:07:26.349Z,99.90
2022-10-04T08:10:03.917Z,99.90
2022-10-04T08:12:46.028Z,99.90
2022-10-04T08:15:35.681Z,99.90
2022-10-04T08:18:22.138Z,99.90
2022-10-04T08:20:55.948Z,99.90
2022-10-04T08:23:59.629Z,99.90
2022-10-04T08:26:42.046Z,99.90
2022-10-04T08:29:45.014Z,99.90
2022-10-04T08:32:47.449Z,99.90
2022-10-04T08:35:38.255Z,99.90
2022-10-04T08:38:45.183Z,99.90
2022-10-04T08:41:53.970Z,99.90
2022-10-04T08:44:58.308Z,99.90
2022-10-04T08:48:18.154Z,99.90
2022-10-04T08:51:07.081Z,99.90
2022-10-04T08:54:08.462Z,99.90
2022-10-04T08:57:11.192Z,99.90
2022-10-04T09:00:13.565Z,99.90
2022-10-04T09:03:26.448Z,99.90
2022-10-04T09:05:58.877Z,99.90
2022-10-04T09:08:56.408Z,99.90
2022-10-04T09:11:52.024Z,99.90
2022-10-04T09:14:46.237Z,99.90
2022-10-04T09:17:22.728Z,99.90
2022-10-04T09:20:09.264Z,99.90
2022-10-04T09:22:48.748Z,99.90
2022-10-04T09:25:56.343Z,99.90
2022-10-04T09:29:04.558Z,99.90
2022-10-04T09:31:53.339Z,99.90
2022-10-04T09:34:49.712Z,99.90
2022-10-04T09:37:37.785Z,99.90
2022-10-04T09:41:01.960Z,99.90
2022-10-04T09:43:48.490Z,99.90
2022-10-04T09:46:46.038Z,99.90
2022-10-04T09:49:30.484Z,99.90
2022-10-04T09:52:16.551Z,99.90
2022-10-04T09:55:07.866Z,99.90
2022-10-04T09:57:51.010Z,99.90
2022-10-04T10:00:25.755Z,99.90
2022-10-04T10:03:27.772Z,99.90
2022-10-04T10:06:34.844Z,99.90
2022-10-04T10:09:15.901Z,99.90
2022-10-04T10:12:10.285Z,99.90
2022-10-04T10:15:14.037Z,99.90
2022-10-04T10:17:49.772Z,99.90
2022-10-04T10:20:50.770Z,99.90
2022-10-04T10:23:33.037Z,99.90
2022-10-04T10:26:24.874Z,99.90
2022-10-04T10:29:32.910Z,99.90
2022-10-04T10:32:26.394Z,99.90
2022-10-04T10:35:34.982Z,99.90
2022-10-04T10:38:32.064Z,99.90
2022-10-04T10:41:18.642Z,99.90
2022-10-04T10:44:08.249Z,99.90
2022-10-04T10:46:59.584Z,99.90
2022-10-04T10:49:44.523Z,99.90
2022-10-04T10:52:37.946Z,99.90
2022-10-04T10:55:48.159Z,99.90
2022-10-04T10:58:41.260Z,99.90
2022-10-04T11:01:32.842Z,99.90
2022-10-04T11:04:27.643Z,99.90
2022-10-04T11:07:16.255Z,99.90
2022-10-04T11:10:26.581Z,99.90
2022-10-04T11:13:21.244Z,99.90
2022-10-04T11:16:21.840Z,99.90
2022-10-04T11:19:23.413Z,99.90
2022-10-04T11:22:20.039Z,99.90
2022-10-04T11:25:29.661Z,99.90
2022-10-04T11:28:06.017Z,99.90
2022-10-04T11:31:02.250Z,99.70
2022-10-04T11:34:00.309Z,99.70
2022-10-04T11:36:43.429Z,99.70
2022-10-04T11:39:35.279Z,99.70
2022-10-04T11:42:15.058Z,99.60
2022-10-04T11:45:19.310Z,99.60
2022-10-04T11:48:02.301Z,99.50
2022-10-04T11:50:39.797Z,99.50
2022-10-04T11:53:32.174Z,99.50
2022-10-04T11:56:34.008Z,99.40
2022-10-04T11:59:22.806Z,99.40
2022-10-04T12:02:32.096Z,99.30
2022-10-04T12:05:26.811Z,99.30
2022-10-04T12:08:05.484Z,99.20
2022-10-04T12:10:37.674Z,99.10
2022-10-04T12:13:30.239Z,99.00
2022-10-04T12:16:24.041Z,98.90
2022-10-04T12:19:22.921Z,98.90
2022-10-04T12:22:13.654Z,98.90
2022-10-04T12:25:00.152Z,98.80
2022-10-04T12:28:11.495Z,98.80
2022-10-04T12:31:02.769Z,98.70
2022-10-04T12:33:37.763Z,98.70
2022-10-04T12:36:24.444Z,98.70
2022-10-04T12:39:08.413Z,98.70
2022-10-04T12:41:45.882Z,98.70
2022-10-04T12:44:29.175Z,98.70
2022-10-04T12:47:20.203Z,98.50
2022-10-04T12:49:57.172Z,98.60
2022-10-04T12:52:27.821Z,98.90
2022-10-04T12:55:03.096Z,98.50
2022-10-04T12:57:51.602Z,98.30
2022-10-04T13:00:22.689Z,98.30
2022-10-04T13:03:02.343Z,98.30
2022-10-04T13:05:37.845Z,98.30
2022-10-04T13:08:21.032Z,98.30
2022-10-04T13:11:26.894Z,98.30
2022-10-04T13:14:29.543Z,98.30
2022-10-04T13:19:59.289Z,98.10
2022-10-04T13:22:56.575Z,98.10
2022-10-04T13:25:38.422Z,98.10
2022-10-04T13:28:23.187Z,98.10
2022-10-04T13:30:56.789Z,98.10
2022-10-04T13:33:32.382Z,98.00
2022-10-04T13:36:07.238Z,97.90
2022-10-04T13:38:57.390Z,97.80
2022-10-04T13:41:39.715Z,97.80
2022-10-04T13:44:24.001Z,97.50
2022-10-04T13:47:10.118Z,97.60
2022-10-04T13:49:53.788Z,97.50
2022-10-04T13:52:48.662Z,97.60
2022-10-04T13:55:44.682Z,97.50
2022-10-04T13:58:27.103Z,97.50
2022-10-04T14:01:31.456Z,97.40
2022-10-04T14:04:20.082Z,97.40
2022-10-04T14:07:13.501Z,97.40
2022-10-04T14:09:52.539Z,97.40
2022-10-04T14:12:54.023Z,97.30
2022-10-04T14:15:53.303Z,97.20
2022-10-04T14:19:21.124Z,97.10
2022-10-04T14:22:23.740Z,97.00
2022-10-04T14:25:30.940Z,97.00
2022-10-04T14:28:38.331Z,97.00
2022-10-04T14:31:24.124Z,97.00
2022-10-04T14:34:29.440Z,97.00
2022-10-04T14:37:15.005Z,96.90
2022-10-04T14:40:00.770Z,96.80
2022-10-04T14:43:00.432Z,96.80
2022-10-04T14:45:39.451Z,96.80
2022-10-04T14:48:38.380Z,96.90
2022-10-04T14:51:39.042Z,96.90
2022-10-04T14:54:11.034Z,96.80
2022-10-04T14:56:58.026Z,96.80
2022-10-04T14:59:42.894Z,96.70
2022-10-04T15:02:43.858Z,96.80
2022-10-04T15:05:32.013Z,96.80
2022-10-04T15:08:38.666Z,96.80
2022-10-04T15:11:08.555Z,96.80
2022-10-04T15:13:42.166Z,96.80
2022-10-04T15:16:22.651Z,96.90
2022-10-04T15:18:55.714Z,96.90
2022-10-04T15:21:51.743Z,97.00
2022-10-04T15:24:30.950Z,97.00
2022-10-04T15:27:27.358Z,97.00
2022-10-04T15:30:03.442Z,97.10
2022-10-04T15:32:37.803Z,97.00
2022-10-04T15:35:24.329Z,97.10
2022-10-04T15:37:59.249Z,97.10
2022-10-04T15:40:40.683Z,97.20
2022-10-04T15:43:25.958Z,97.20
2022-10-04T15:46:26.593Z,97.30
2022-10-04T15:49:17.038Z,97.40
2022-10-04T15:52:03.304Z,97.40
2022-10-04T15:55:05.019Z,97.40
2022-10-04T15:57:53.766Z,97.40
2022-10-04T16:00:25.318Z,97.50
2022-10-04T16:03:05.979Z,97.50
2022-10-04T16:05:39.944Z,97.50
2022-10-04T16:08:36.353Z,97.60
2022-10-04T16:11:26.366Z,97.60
2022-10-04T16:14:22.947Z,97.70
2022-10-04T16:17:22.414Z,97.70
2022-10-04T16:20:02.448Z,97.80
2022-10-04T16:22:31.730Z,97.80
2022-10-04T16:25:20.446Z,97.80
2022-10-04T16:28:05.843Z,97.90
2022-10-04T16:30:43.279Z,97.90
2022-10-04T16:33:25.370Z,97.90
2022-10-04T16:36:05.434Z,97.90
2022-10-04T16:38:57.602Z,97.90
2022-10-04T16:41:35.106Z,97.90
2022-10-04T16:44:04.590Z,98.00
2022-10-04T16:46:39.166Z,98.00
2022-10-04T16:49:25.097Z,98.00
2022-10-04T16:52:20.050Z,98.00
2022-10-04T16:55:17.679Z,98.00
2022-10-04T16:57:45.821Z,98.00
2022-10-04T17:00:36.078Z,98.00
2022-10-04T17:03:16.171Z,98.10
2022-10-04T17:06:07.264Z,98.10
2022-10-04T17:09:03.686Z,98.10
2022-10-04T17:11:45.559Z,98.10
2022-10-04T17:14:35.984Z,98.20
2022-10-04T17:17:12.339Z,98.20
2022-10-04T17:19:49.160Z,98.20
2022-10-04T17:22:33.242Z,98.20
2022-10-04T17:25:18.835Z,98.20
2022-10-04T17:27:51.305Z,98.30
2022-10-04T17:30:22.307Z,98.30
2022-10-04T17:33:18.361Z,98.30
2022-10-04T17:36:09.254Z,98.40
2022-10-04T17:38:45.474Z,98.40
2022-10-04T17:41:19.924Z,98.40
2022-10-04T17:44:19.433Z,98.50
2022-10-04T17:46:54.397Z,98.60
2022-10-04T17:49:49.984Z,98.50
2022-10-04T17:52:42.861Z,98.60
2022-10-04T17:55:17.961Z,98.60
2022-10-04T17:57:50.820Z,98.60
2022-10-04T18:00:21.190Z,98.70
2022-10-04T18:03:11.897Z,98.60
2022-10-04T18:05:50.709Z,98.70
2022-10-04T18:08:25.405Z,98.70
2022-10-04T18:10:56.975Z,98.70
2022-10-04T18:13:31.263Z,98.90
2022-10-04T18:16:11.352Z,98.80
2022-10-04T18:18:41.689Z,98.80
2022-10-04T18:21:27.286Z,98.80
2022-10-04T18:23:59.437Z,98.90
2022-10-04T18:26:30.027Z,98.90
2022-10-04T18:29:00.364Z,98.90
2022-10-04T18:31:32.886Z,99.00
2022-10-04T18:34:15.807Z,99.00
2022-10-04T18:37:06.416Z,99.10
2022-10-04T18:39:46.274Z,99.10
2022-10-04T18:42:23.306Z,99.10
2022-10-04T18:44:59.206Z,99.10
2022-10-04T18:47:38.050Z,99.10
2022-10-04T18:50:17.868Z,99.10
2022-10-04T18:52:58.908Z,99.20
2022-10-04T18:55:42.699Z,99.20
2022-10-04T18:58:43.478Z,99.20
2022-10-04T19:01:49.027Z,99.20
2022-10-04T19:04:27.162Z,99.30
2022-10-04T19:06:58.821Z,99.20
2022-10-04T19:09:34.776Z,99.30
2022-10-04T19:12:12.054Z,99.30
2022-10-04T19:14:48.627Z,99.20
2022-10-04T19:17:22.354Z,99.30
2022-10-04T19:20:03.153Z,99.30
2022-10-04T19:22:44.802Z,99.40
2022-10-04T19:25:29.970Z,99.30
2022-10-04T19:28:05.637Z,99.40
2022-10-04T19:30:48.834Z,99.40
2022-10-04T19:33:21.221Z,99.50
2022-10-04T19:36:07.350Z,99.50
2022-10-04T19:38:52.062Z,99.50
2022-10-04T19:41:28.242Z,99.50
2022-10-04T19:44:03.895Z,99.50
2022-10-04T19:46:42.206Z,99.50
2022-10-04T19:49:21.419Z,99.50
2022-10-04T19:51:53.726Z,99.60
2022-10-04T19:54:29.280Z,99.60
2022-10-04T19:56:58.763Z,99.70
2022-10-04T19:59:36.724Z,99.70
2022-10-04T20:02:09.375Z,99.80
2022-10-04T20:04:38.375Z,99.80
2022-10-04T20:07:11.421Z,99.80
2022-10-04T20:09:54.243Z,99.80
2022-10-04T20:12:36.890Z,99.90
2022-10-04T20:15:43.601Z,99.90
2022-10-04T20:18:44.817Z,99.90
2022-10-04T20:21:26.572Z,99.90
2022-10-04T20:23:57.652Z,99.90
2022-10-04T20:27:06.544Z,99.90
2022-10-04T20:30:06.089Z,99.90
2022-10-04T20:33:10.593Z,99.90
2022-10-04T20:36:04.871Z,99.90
2022-10-04T20:38:50.261Z,99.90
2022-10-04T20:42:22.238Z,99.90
2022-10-04T20:44:55.297Z,99.90
2022-10-04T20:47:37.915Z,99.90
2022-10-04T20:50:14.334Z,99.90
2022-10-04T20:52:48.001Z,99.90
2022-10-04T20:55:23.673Z,99.90
2022-10-04T20:57:51.477Z,99.90
2022-10-04T21:00:21.514Z,99.90
2022-10-04T21:02:50.213Z,99.90
2022-10-04T21:09:00.390Z,99.90
2022-10-04T21:11:44.931Z,99.90
2022-10-04T21:14:23.659Z,99.90
2022-10-04T21:16:53.490Z,99.90
2022-10-04T21:19:47.070Z,99.90
2022-10-04T21:22:37.406Z,99.90
2022-10-04T21:25:30.899Z,99.90
2022-10-04T21:28:33.477Z,99.90
2022-10-04T21:31:02.534Z,99.90
2022-10-04T21:33:32.610Z,99.90
2022-10-04T21:36:00.503Z,99.90
2022-10-04T21:38:28.601Z,99.90
2022-10-04T21:40:58.087Z,99.90
2022-10-04T21:43:26.622Z,99.90
2022-10-04T21:45:54.394Z,99.90
2022-10-04T21:48:23.230Z,99.90
2022-10-04T21:50:52.406Z,99.90
2022-10-04T21:53:20.667Z,99.90
2022-10-04T21:55:48.432Z,99.90
2022-10-04T21:58:17.503Z,99.90
2022-10-04T22:00:45.308Z,99.90
2022-10-04T22:03:13.027Z,99.90
2022-10-04T22:05:40.762Z,99.90
2022-10-04T22:08:08.494Z,99.90
2022-10-04T22:10:36.252Z,99.90
2022-10-04T22:13:03.957Z,99.90
2022-10-04T22:15:33.018Z,99.90
2022-10-04T22:18:00.723Z,99.90
2022-10-04T22:20:28.766Z,99.90
2022-10-04T22:22:57.497Z,99.90
2022-10-04T22:25:27.147Z,99.90
2022-10-04T22:27:55.727Z,99.90
2022-10-04T22:30:26.233Z,99.90
2022-10-04T22:32:58.199Z,99.90
2022-10-04T22:35:26.035Z,99.90
2022-10-04T22:37:54.157Z,99.90
2022-10-04T22:40:23.586Z,99.90
2022-10-04T22:42:53.424Z,99.90
2022-10-04T22:45:24.061Z,99.90
2022-10-04T22:47:52.773Z,99.90
2022-10-04T22:50:40.053Z,99.90
2022-10-04T22:53:14.542Z,99.90
2022-10-04T22:55:42.675Z,99.90
2022-10-04T22:58:13.934Z,99.90
2022-10-04T23:00:42.062Z,99.90
2022-10-04T23:03:23.253Z,99.90
2022-10-04T23:05:52.326Z,99.90
2022-10-04T23:08:20.044Z,99.90
2022-10-04T23:10:48.405Z,99.90
2022-10-04T23:13:16.125Z,99.90
2022-10-04T23:15:43.873Z,99.90
2022-10-04T23:18:15.463Z,99.90
2022-10-04T23:20:43.713Z,99.90
2022-10-04T23:23:18.234Z,99.90
2022-10-04T23:25:47.037Z,99.90
2022-10-04T23:28:16.481Z,99.90
2022-10-04T23:30:45.805Z,99.90
2022-10-04T23:33:17.655Z,99.90
2022-10-04T23:35:45.399Z,99.90
2022-10-04T23:38:17.481Z,99.90
2022-10-04T23:40:45.577Z,99.90
2022-10-04T23:43:18.757Z,99.90
2022-10-04T23:45:46.702Z,99.90
2022-10-04T23:48:22.247Z,99.90
2022-10-04T23:50:51.219Z,99.90
2022-10-04T23:53:26.572Z,99.90
2022-10-04T23:55:55.661Z,99.90
2022-10-04T23:58:25.383Z,99.90
